Airfield :
LOGIN :

Register | Disclaimer

   EN    FR    IT 

 










Legend :    VFR   Marginal VFR   IFR   Intensive IFR   Very Intensive IFR
Visi :
Ceiling :
>= 8 km
>= 3000ft
5 to 8 km
1000 to 3000 ft
1500m to 5 km
500 to 1000 ft
800 to 1500m
200 to 500 ft
< 800m
< 200 ft
Symbols :   Thunderstorms  Fog  Heavy snow  Heavy precipitations  Wind > 20 kt
SIGMETs :     Misc.  Thunderstorms  Icing  Turbulence  Mountain Waves  Volcanic Ashes






- Airport Elevation : 170 ft
- IATA code : KRP


EKKA - Karup

CURRENT METAR :
  • 122020Z AUTO 28015KT 9999 FEW027/// 11/07 Q1017

EXPIRED METARs :
  • 121950Z AUTO 28018KT 9999 FEW025/// BKN049/// 12/07 Q1017
  • 121920Z AUTO 29016G26KT 9999 BKN043/// 12/07 Q1017
  • 121850Z AUTO 29018G31KT 9999 BKN027/// 13/06 Q1017
  • 121843Z AUTO 29016G27KT 9999 BKN027/// 13/07 Q1017
  • 121823Z AUTO 29018G29KT 9999 BKN026/// 13/07 Q1017
  • 121750Z AUTO 29020G31KT 9999 BKN030/// 13/07 Q1016
  • 121734Z AUTO 30018G32KT 9999 BKN029/// 13/06 Q1016

TAF TAF EKKA
Valid from the 12 at 18:00 until the 13 at 18:00 UTC


121701Z 1218/1318 29015G25KT 9999 SCT025
TEMPO 1218/1220 30018G30KT FEW025TCU
BECMG 1300/1303 30012KT
TEMPO 1306/1316 31012G24KT



MET'MAP, your aeronautical weather chart ! - Copyright ORBIFLY December 2007 - Disclaimer

ORBIFLY MET'MAP TEAM :

Programming & Development : Alexandra Zaïnal
Concept & original design : Baudouin d'Aumeries
Assistance for programming : Marc-Olivier Méhu
Technical & hardware support : Manuel Goepfert

Contact : metmap@orbifly.com




SOURCES & CREDITS :

   NOAA